Time;durP1;ratioP1;P1;durP2;ratioP2;P2;SDS_P1;SDS_P2;PMS_P1;PMS_P2;Temp;Humidity;BMP_temperature;BMP_pressure;BME280_temperature;BME280_humidity;BME280_pressure;Samples;Min_cycle;Max_cycle;Signal;HPM_P1;HPM_P2
2021/11/16 00:01:44;;;;;;;51.25;17.10;;;;;;;;;;5069057;28;20445;-54
2021/11/16 00:04:11;;;;;;;46.38;17.35;;;;;;;;;;5070270;28;20072;-54
2021/11/16 00:06:37;;;;;;;48.13;16.40;;;;;;;;;;5072535;28;20068;-54
2021/11/16 00:09:05;;;;;;;48.88;17.23;;;;;;;;;;5069009;28;20044;-55
2021/11/16 00:11:32;;;;;;;39.08;16.45;;;;;;;;;;5067453;28;20068;-55
2021/11/16 00:13:59;;;;;;;38.80;16.52;;;;;;;;;;5061114;28;20044;-54
2021/11/16 00:16:26;;;;;;;39.65;16.05;;;;;;;;;;5054779;28;20044;-54
2021/11/16 00:19:00;;;;;;;37.70;15.52;;;;;;;;;;5053981;28;20091;-54
2021/11/16 00:21:27;;;;;;;42.83;18.05;;;;;;;;;;5070980;28;20087;-54
2021/11/16 00:23:57;;;;;;;47.25;18.20;;;;;;;;;;5068999;28;20453;-54
2021/11/16 00:26:24;;;;;;;44.55;19.17;;;;;;;;;;5069047;28;20043;-55
2021/11/16 00:28:51;;;;;;;44.08;17.10;;;;;;;;;;5069120;28;20040;-54
2021/11/16 00:31:18;;;;;;;46.47;17.48;;;;;;;;;;5069319;28;20885;-54
2021/11/16 00:33:44;;;;;;;39.35;16.38;;;;;;;;;;5073007;28;20145;-54
2021/11/16 00:36:10;;;;;;;42.75;15.43;;;;;;;;;;5068957;28;20044;-54
2021/11/16 00:38:39;;;;;;;42.55;16.65;;;;;;;;;;5068845;28;20079;-54
2021/11/16 00:41:05;;;;;;;39.40;17.05;;;;;;;;;;5068592;28;20075;-54
2021/11/16 00:43:32;;;;;;;44.20;16.20;;;;;;;;;;5069216;28;20052;-54
2021/11/16 00:45:58;;;;;;;40.38;16.77;;;;;;;;;;5071164;28;20075;-54
2021/11/16 00:48:25;;;;;;;46.72;17.65;;;;;;;;;;5069910;28;20044;-54
2021/11/16 00:50:56;;;;;;;31.63;12.95;;;;;;;;;;5062737;28;20132;-54
2021/11/16 00:53:23;;;;;;;40.00;15.93;;;;;;;;;;5069978;28;20515;-54
2021/11/16 00:55:50;;;;;;;52.13;18.48;;;;;;;;;;5068662;28;20063;-54
2021/11/16 00:58:16;;;;;;;37.92;16.13;;;;;;;;;;5054261;28;20041;-54
2021/11/16 01:00:43;;;;;;;36.25;16.63;;;;;;;;;;5072330;28;20076;-53
2021/11/16 01:03:10;;;;;;;40.00;16.95;;;;;;;;;;5068349;28;20056;-54
2021/11/16 01:05:36;;;;;;;41.85;16.08;;;;;;;;;;5068462;28;20056;-54
2021/11/16 01:08:03;;;;;;;37.60;15.40;;;;;;;;;;5068569;28;20048;-55
2021/11/16 01:10:29;;;;;;;44.17;17.55;;;;;;;;;;5068549;28;20090;-54
2021/11/16 01:12:55;;;;;;;34.92;16.20;;;;;;;;;;5070412;28;20102;-55
2021/11/16 01:15:22;;;;;;;51.97;17.95;;;;;;;;;;5069863;28;20506;-55
2021/11/16 01:17:49;;;;;;;46.25;17.15;;;;;;;;;;5067981;28;20415;-54
2021/11/16 01:20:16;;;;;;;41.80;17.05;;;;;;;;;;5068274;28;20059;-54
2021/11/16 01:22:43;;;;;;;46.15;19.35;;;;;;;;;;5068715;28;20060;-54
2021/11/16 01:25:10;;;;;;;45.67;17.95;;;;;;;;;;5069275;28;20040;-54
2021/11/16 01:27:37;;;;;;;44.40;17.33;;;;;;;;;;5071134;28;20045;-54
2021/11/16 01:30:06;;;;;;;42.25;16.88;;;;;;;;;;5068386;28;20094;-54
2021/11/16 01:32:38;;;;;;;40.40;17.05;;;;;;;;;;5068107;28;20134;-54
2021/11/16 01:35:05;;;;;;;38.58;16.65;;;;;;;;;;5068621;28;20049;-53
2021/11/16 01:37:33;;;;;;;34.03;14.45;;;;;;;;;;5067848;28;20072;-54
2021/11/16 01:39:59;;;;;;;37.63;18.10;;;;;;;;;;5070666;28;20087;-54
2021/11/16 01:42:26;;;;;;;46.42;16.92;;;;;;;;;;5069309;28;20092;-54
2021/11/16 01:44:52;;;;;;;43.15;17.80;;;;;;;;;;5068291;28;20190;-54
2021/11/16 01:47:19;;;;;;;39.42;15.60;;;;;;;;;;5068188;28;20047;-54
2021/11/16 01:49:45;;;;;;;43.80;16.13;;;;;;;;;;5068082;28;20800;-54
2021/11/16 01:52:12;;;;;;;50.45;17.23;;;;;;;;;;5064164;28;20079;-54
2021/11/16 01:54:39;;;;;;;44.80;17.40;;;;;;;;;;5071845;28;20611;-54
2021/11/16 01:57:06;;;;;;;42.00;17.20;;;;;;;;;;5067778;28;20135;-54
2021/11/16 01:59:32;;;;;;;44.75;17.38;;;;;;;;;;5067822;28;20048;-54
2021/11/16 02:02:00;;;;;;;36.92;16.30;;;;;;;;;;5067970;28;20033;-54
2021/11/16 02:04:32;;;;;;;45.45;16.73;;;;;;;;;;5067907;28;20079;-54
2021/11/16 02:06:59;;;;;;;38.90;17.38;;;;;;;;;;5070159;28;20076;-54
2021/11/16 02:09:25;;;;;;;36.30;16.95;;;;;;;;;;5069517;28;20044;-54
2021/11/16 02:11:53;;;;;;;38.28;15.07;;;;;;;;;;5067876;28;20133;-54
2021/11/16 02:14:19;;;;;;;40.83;16.60;;;;;;;;;;5067483;28;20040;-54
2021/11/16 02:16:46;;;;;;;47.00;17.13;;;;;;;;;;5067790;28;20166;-54
2021/11/16 02:19:13;;;;;;;44.30;18.08;;;;;;;;;;5068623;28;20080;-54
2021/11/16 02:21:40;;;;;;;38.70;17.77;;;;;;;;;;5071238;28;20549;-54
2021/11/16 02:24:07;;;;;;;46.85;18.17;;;;;;;;;;5067516;28;20045;-54
2021/11/16 02:26:33;;;;;;;44.40;18.98;;;;;;;;;;5071099;28;20068;-54
2021/11/16 02:29:00;;;;;;;38.78;17.35;;;;;;;;;;5071014;28;20032;-54
2021/11/16 02:31:26;;;;;;;33.30;16.40;;;;;;;;;;5071378;28;20045;-54
2021/11/16 02:33:53;;;;;;;39.30;17.02;;;;;;;;;;5073198;28;20496;-55
2021/11/16 02:36:20;;;;;;;40.40;17.75;;;;;;;;;;5073950;28;20044;-54
2021/11/16 02:38:47;;;;;;;45.65;19.00;;;;;;;;;;5070996;28;20063;-54
2021/11/16 02:41:14;;;;;;;45.20;18.30;;;;;;;;;;5071297;28;20084;-54
2021/11/16 02:43:41;;;;;;;46.83;17.88;;;;;;;;;;5070667;28;20051;-54
2021/11/16 02:46:08;;;;;;;34.95;15.05;;;;;;;;;;5072487;28;20128;-54
2021/11/16 02:48:35;;;;;;;41.75;18.13;;;;;;;;;;5073632;28;20455;-54
2021/11/16 02:51:03;;;;;;;42.75;17.80;;;;;;;;;;5071069;28;20048;-54
2021/11/16 02:53:30;;;;;;;41.47;15.50;;;;;;;;;;5071320;28;20049;-54
2021/11/16 02:55:56;;;;;;;31.70;13.40;;;;;;;;;;5071443;28;20099;-54
2021/11/16 02:58:24;;;;;;;42.47;17.67;;;;;;;;;;5071037;28;20060;-54
2021/11/16 03:00:56;;;;;;;47.10;19.70;;;;;;;;;;5074687;28;20044;-55
2021/11/16 03:03:22;;;;;;;41.88;18.20;;;;;;;;;;5074304;28;20554;-54
2021/11/16 03:05:49;;;;;;;40.25;18.23;;;;;;;;;;5071291;28;20140;-54
2021/11/16 03:08:20;;;;;;;40.13;15.57;;;;;;;;;;5071302;28;20048;-54
2021/11/16 03:10:46;;;;;;;46.00;18.25;;;;;;;;;;5071375;28;20099;-54
2021/11/16 03:13:13;;;;;;;43.15;17.92;;;;;;;;;;5071632;28;20044;-54
2021/11/16 03:15:43;;;;;;;49.40;18.55;;;;;;;;;;5073671;28;20055;-54
2021/11/16 03:18:10;;;;;;;39.65;16.52;;;;;;;;;;5070460;28;20057;-54
2021/11/16 03:20:37;;;;;;;37.45;16.77;;;;;;;;;;5070592;28;20070;-54
2021/11/16 03:23:10;;;;;;;48.05;19.02;;;;;;;;;;5070240;28;20044;-54
2021/11/16 03:25:43;;;;;;;42.45;18.17;;;;;;;;;;5070643;28;20068;-54
2021/11/16 03:28:11;;;;;;;49.30;17.63;;;;;;;;;;5071447;28;20040;-54
2021/11/16 03:30:38;;;;;;;40.78;16.15;;;;;;;;;;5073513;28;20040;-54
2021/11/16 03:33:04;;;;;;;30.35;14.43;;;;;;;;;;5070300;28;20068;-54
2021/11/16 03:35:31;;;;;;;43.15;16.25;;;;;;;;;;5070003;28;20500;-54
2021/11/16 03:37:58;;;;;;;39.97;15.68;;;;;;;;;;5070242;28;20044;-54
2021/11/16 03:40:26;;;;;;;51.00;19.45;;;;;;;;;;5070729;28;20495;-54
2021/11/16 03:42:53;;;;;;;46.33;18.55;;;;;;;;;;5073034;28;20139;-55
2021/11/16 03:45:21;;;;;;;40.05;18.48;;;;;;;;;;5071807;28;20044;-54
2021/11/16 03:47:48;;;;;;;41.35;17.90;;;;;;;;;;5070363;28;20488;-54
2021/11/16 03:50:16;;;;;;;43.35;18.95;;;;;;;;;;5070412;28;20067;-54
2021/11/16 03:52:44;;;;;;;43.90;18.98;;;;;;;;;;5070629;28;20470;-54
2021/11/16 03:55:11;;;;;;;44.05;18.70;;;;;;;;;;5071564;28;20076;-54
2021/11/16 03:57:38;;;;;;;44.85;19.02;;;;;;;;;;5072836;28;20041;-54
2021/11/16 04:00:05;;;;;;;46.92;19.20;;;;;;;;;;5070331;28;20412;-54
2021/11/16 04:02:32;;;;;;;47.47;18.63;;;;;;;;;;5069762;28;20515;-54
2021/11/16 04:04:58;;;;;;;38.65;16.45;;;;;;;;;;5070148;28;20083;-54
2021/11/16 04:07:25;;;;;;;49.53;18.27;;;;;;;;;;5070053;28;20033;-54
2021/11/16 04:09:51;;;;;;;39.55;16.98;;;;;;;;;;5072855;28;20079;-54
2021/11/16 04:12:17;;;;;;;44.28;18.48;;;;;;;;;;5070627;28;20048;-55
2021/11/16 04:14:44;;;;;;;39.17;17.98;;;;;;;;;;5070002;28;20058;-54
2021/11/16 04:17:10;;;;;;;43.63;18.48;;;;;;;;;;5069857;28;20068;-55
2021/11/16 04:19:36;;;;;;;38.25;16.90;;;;;;;;;;5069817;28;20107;-54
2021/11/16 04:22:03;;;;;;;42.70;19.27;;;;;;;;;;5071918;28;20048;-54
2021/11/16 04:24:30;;;;;;;54.80;18.75;;;;;;;;;;5071307;28;20063;-54
2021/11/16 04:26:56;;;;;;;52.22;19.30;;;;;;;;;;5069414;28;20045;-54
2021/11/16 04:29:23;;;;;;;48.78;18.67;;;;;;;;;;5069696;28;20044;-54
2021/11/16 04:31:49;;;;;;;44.90;18.52;;;;;;;;;;5069541;28;20492;-54
2021/11/16 04:34:16;;;;;;;43.65;18.60;;;;;;;;;;5069949;28;20048;-55
2021/11/16 04:36:42;;;;;;;49.33;20.45;;;;;;;;;;5073084;28;20410;-54
2021/11/16 04:39:08;;;;;;;52.58;19.63;;;;;;;;;;5068843;28;20141;-54
2021/11/16 04:41:36;;;;;;;41.45;18.23;;;;;;;;;;5069009;28;20048;-54
2021/11/16 04:44:05;;;;;;;46.13;20.48;;;;;;;;;;5069507;28;20072;-54
2021/11/16 04:46:32;;;;;;;56.30;19.70;;;;;;;;;;5069414;28;20496;-54
2021/11/16 04:49:06;;;;;;;54.15;20.63;;;;;;;;;;5071039;28;20048;-54
2021/11/16 04:51:43;;;;;;;46.80;19.15;;;;;;;;;;5071531;28;20084;-54
2021/11/16 04:54:40;;;;;;;49.65;21.52;;;;;;;;;;5068865;28;20048;-54
2021/11/16 04:59:49;;;;;;;54.20;19.73;;;;;;;;;;5069104;28;20046;-54
2021/11/16 05:05:03;;;;;;;47.30;20.02;;;;;;;;;;5068987;28;20051;-55
2021/11/16 05:07:32;;;;;;;47.05;19.45;;;;;;;;;;5069067;28;20041;-54
2021/11/16 05:09:58;;;;;;;51.63;21.95;;;;;;;;;;5071188;28;20044;-54
2021/11/16 05:12:26;;;;;;;52.80;20.38;;;;;;;;;;5070191;28;20048;-54
2021/11/16 05:14:53;;;;;;;49.00;20.48;;;;;;;;;;5068787;28;20526;-54
2021/11/16 05:17:19;;;;;;;48.97;20.90;;;;;;;;;;5068745;28;20036;-55
2021/11/16 05:19:46;;;;;;;52.30;21.00;;;;;;;;;;5068795;28;20068;-54
2021/11/16 05:22:12;;;;;;;56.38;21.83;;;;;;;;;;5069642;28;20037;-54
2021/11/16 05:24:38;;;;;;;67.35;21.67;;;;;;;;;;5071704;28;20056;-54
2021/11/16 05:27:06;;;;;;;52.65;21.98;;;;;;;;;;5068671;28;20048;-54
2021/11/16 05:29:32;;;;;;;59.92;23.20;;;;;;;;;;5068681;28;20059;-54
2021/11/16 05:31:58;;;;;;;65.40;23.40;;;;;;;;;;5068706;28;20106;-54
2021/11/16 05:34:25;;;;;;;58.10;21.45;;;;;;;;;;5068789;28;20496;-54
2021/11/16 05:36:51;;;;;;;68.70;22.52;;;;;;;;;;5071394;28;20412;-54
2021/11/16 05:39:18;;;;;;;61.65;20.25;;;;;;;;;;5069499;28;20437;-54
2021/11/16 05:41:44;;;;;;;59.30;21.60;;;;;;;;;;5068383;28;20057;-54
2021/11/16 05:44:11;;;;;;;61.63;22.67;;;;;;;;;;5068582;28;20068;-54
2021/11/16 05:46:37;;;;;;;59.35;23.33;;;;;;;;;;5068593;28;20049;-54
2021/11/16 05:49:04;;;;;;;60.58;20.23;;;;;;;;;;5067601;28;20049;-54
2021/11/16 05:51:31;;;;;;;55.88;23.08;;;;;;;;;;5053844;28;20071;-55
2021/11/16 05:54:00;;;;;;;62.80;22.38;;;;;;;;;;5068537;28;20559;-54
2021/11/16 05:56:27;;;;;;;63.28;22.40;;;;;;;;;;5068367;28;20055;-54
2021/11/16 05:58:54;;;;;;;64.68;24.67;;;;;;;;;;5069201;28;20075;-54
2021/11/16 06:01:21;;;;;;;55.65;22.40;;;;;;;;;;5073858;28;20063;-54
2021/11/16 06:03:54;;;;;;;68.85;22.17;;;;;;;;;;5073013;28;20048;-54
2021/11/16 06:06:40;;;;;;;73.43;23.17;;;;;;;;;;5062402;28;20049;-54
2021/11/16 06:09:07;;;;;;;57.70;21.48;;;;;;;;;;5071078;28;20049;-54
2021/11/16 06:11:35;;;;;;;56.70;21.75;;;;;;;;;;5072167;28;20048;-54
2021/11/16 06:14:01;;;;;;;51.85;22.40;;;;;;;;;;5072266;28;20070;-54
2021/11/16 06:16:28;;;;;;;60.03;22.75;;;;;;;;;;5073493;28;20439;-54
2021/11/16 06:18:56;;;;;;;65.35;22.15;;;;;;;;;;5074663;28;20123;-54
2021/11/16 06:21:23;;;;;;;57.45;21.95;;;;;;;;;;5074409;28;20408;-54
2021/11/16 06:23:49;;;;;;;69.18;23.20;;;;;;;;;;5073335;28;20094;-54
2021/11/16 06:26:16;;;;;;;61.22;21.17;;;;;;;;;;5070736;28;20072;-54
2021/11/16 06:28:43;;;;;;;54.80;21.38;;;;;;;;;;5072140;28;20100;-55
2021/11/16 06:31:09;;;;;;;52.38;22.77;;;;;;;;;;5073261;28;20132;-54
2021/11/16 06:33:35;;;;;;;59.55;22.85;;;;;;;;;;5074396;28;20492;-54
2021/11/16 06:36:02;;;;;;;50.83;21.08;;;;;;;;;;5071691;28;20595;-54
2021/11/16 06:38:28;;;;;;;51.78;20.35;;;;;;;;;;5072335;28;20139;-55
2021/11/16 06:40:54;;;;;;;58.65;21.95;;;;;;;;;;5071532;28;20090;-54
2021/11/16 06:43:25;;;;;;;52.00;20.35;;;;;;;;;;5071871;28;20553;-55
2021/11/16 06:45:52;;;;;;;52.22;21.33;;;;;;;;;;5072768;28;20086;-54
2021/11/16 06:48:19;;;;;;;69.32;24.75;;;;;;;;;;5082361;28;20432;-54
2021/11/16 06:50:45;;;;;;;55.85;21.52;;;;;;;;;;5077400;28;20052;-54
2021/11/16 06:53:11;;;;;;;56.83;20.27;;;;;;;;;;5077752;28;20044;-54
2021/11/16 06:55:38;;;;;;;63.05;21.27;;;;;;;;;;5081801;28;20073;-54
2021/11/16 06:58:04;;;;;;;63.10;22.00;;;;;;;;;;5081559;28;20410;-54
2021/11/16 07:00:33;;;;;;;55.38;22.52;;;;;;;;;;5075450;28;20101;-54
2021/11/16 07:03:00;;;;;;;62.72;21.85;;;;;;;;;;5074603;28;20109;-54
2021/11/16 07:05:28;;;;;;;68.32;21.80;;;;;;;;;;5072265;28;20111;-54
2021/11/16 07:07:59;;;;;;;50.65;22.02;;;;;;;;;;5081462;28;20040;-54
2021/11/16 07:10:30;;;;;;;52.10;19.33;;;;;;;;;;5064283;28;20555;-54
2021/11/16 07:13:04;;;;;;;62.72;23.08;;;;;;;;;;5073371;28;20047;-54
2021/11/16 07:15:34;;;;;;;58.95;22.42;;;;;;;;;;5072471;28;20044;-54
2021/11/16 07:18:01;;;;;;;45.75;18.65;;;;;;;;;;5061414;28;20530;-54
2021/11/16 07:20:27;;;;;;;61.80;24.35;;;;;;;;;;5066307;28;20036;-54
2021/11/16 07:22:54;;;;;;;55.80;20.25;;;;;;;;;;5070078;28;20048;-54
2021/11/16 07:25:21;;;;;;;59.88;20.55;;;;;;;;;;5063813;28;20043;-54
2021/11/16 07:27:51;;;;;;;54.30;21.92;;;;;;;;;;5069048;28;20051;-54
2021/11/16 07:30:22;;;;;;;58.47;23.63;;;;;;;;;;5068113;28;20080;-54
2021/11/16 07:32:57;;;;;;;55.05;21.35;;;;;;;;;;5066554;28;20056;-54
2021/11/16 07:35:28;;;;;;;60.17;22.80;;;;;;;;;;5071308;28;20075;-54
2021/11/16 07:37:57;;;;;;;57.72;22.80;;;;;;;;;;5067055;28;20047;-54
2021/11/16 07:40:23;;;;;;;64.47;22.60;;;;;;;;;;5063422;28;20093;-55
2021/11/16 07:42:50;;;;;;;64.13;23.42;;;;;;;;;;5066396;28;20057;-54
2021/11/16 07:45:20;;;;;;;57.95;21.50;;;;;;;;;;5060731;28;20043;-54
2021/11/16 07:47:48;;;;;;;61.58;23.52;;;;;;;;;;5055145;28;20110;-54
2021/11/16 07:50:17;;;;;;;50.08;23.27;;;;;;;;;;5054671;28;20077;-55
2021/11/16 07:52:45;;;;;;;56.00;23.10;;;;;;;;;;5068326;28;20040;-54
2021/11/16 07:55:23;;;;;;;55.80;22.80;;;;;;;;;;5071484;28;20055;-54
2021/11/16 07:57:51;;;;;;;47.35;19.58;;;;;;;;;;5072936;28;20088;-54
2021/11/16 08:00:21;;;;;;;61.67;23.08;;;;;;;;;;5076867;28;20136;-54
2021/11/16 08:02:56;;;;;;;57.58;22.85;;;;;;;;;;5071830;28;20487;-54
2021/11/16 08:05:36;;;;;;;60.40;23.70;;;;;;;;;;5068980;28;20071;-54
2021/11/16 08:11:09;;;;;;;56.38;20.80;;;;;;;;;;5068142;28;20177;-54
2021/11/16 08:13:35;;;;;;;56.08;22.55;;;;;;;;;;5067263;28;20428;-54
2021/11/16 08:16:12;;;;;;;52.72;23.30;;;;;;;;;;5067743;28;20076;-54
2021/11/16 08:18:42;;;;;;;60.05;22.85;;;;;;;;;;5055363;28;20536;-55
2021/11/16 08:21:09;;;;;;;51.88;23.02;;;;;;;;;;5066454;28;20127;-54
2021/11/16 08:23:35;;;;;;;62.50;22.38;;;;;;;;;;5070488;28;20068;-54
2021/11/16 08:26:02;;;;;;;53.10;21.08;;;;;;;;;;5077846;28;20056;-54
2021/11/16 08:28:28;;;;;;;57.03;22.55;;;;;;;;;;5070313;28;20063;-54
2021/11/16 08:30:54;;;;;;;54.65;21.42;;;;;;;;;;5068715;28;20041;-54
2021/11/16 08:33:21;;;;;;;47.80;21.02;;;;;;;;;;5066344;28;20040;-54
2021/11/16 08:35:48;;;;;;;58.25;24.23;;;;;;;;;;5068404;28;20059;-54
2021/11/16 08:38:17;;;;;;;58.22;22.17;;;;;;;;;;5071665;28;20411;-54
2021/11/16 08:40:45;;;;;;;50.45;21.40;;;;;;;;;;5067571;28;20048;-54
2021/11/16 08:43:15;;;;;;;54.88;22.55;;;;;;;;;;5067282;28;20516;-54
2021/11/16 08:45:48;;;;;;;53.22;21.20;;;;;;;;;;5063470;28;20041;-54
2021/11/16 08:48:16;;;;;;;55.38;21.17;;;;;;;;;;5067650;28;20064;-54
2021/11/16 08:50:44;;;;;;;54.15;21.77;;;;;;;;;;5064907;28;20055;-54
2021/11/16 08:53:12;;;;;;;54.35;21.02;;;;;;;;;;5074744;28;20045;-54
2021/11/16 08:55:40;;;;;;;46.90;20.20;;;;;;;;;;5069334;28;20537;-54
2021/11/16 08:58:07;;;;;;;52.65;21.83;;;;;;;;;;5064803;28;20110;-54
2021/11/16 09:00:36;;;;;;;46.72;19.73;;;;;;;;;;5064336;28;20496;-54
2021/11/16 09:03:04;;;;;;;51.20;21.88;;;;;;;;;;5075493;28;20053;-54
2021/11/16 09:05:34;;;;;;;47.08;22.00;;;;;;;;;;5077737;28;20055;-54
2021/11/16 09:08:02;;;;;;;52.45;22.00;;;;;;;;;;5071598;28;20491;-54
2021/11/16 09:10:40;;;;;;;52.95;21.67;;;;;;;;;;5067462;28;20072;-53
2021/11/16 09:13:07;;;;;;;53.10;20.38;;;;;;;;;;5068607;28;20109;-55
2021/11/16 09:15:42;;;;;;;49.45;19.38;;;;;;;;;;5060745;28;20087;-54
2021/11/16 09:18:26;;;;;;;51.92;20.75;;;;;;;;;;5078234;28;20048;-55
2021/11/16 09:20:55;;;;;;;54.58;20.60;;;;;;;;;;5073682;28;20060;-55
2021/11/16 09:23:24;;;;;;;47.90;19.80;;;;;;;;;;5076687;28;20491;-55
2021/11/16 09:25:53;;;;;;;49.10;19.35;;;;;;;;;;5068112;28;20446;-54
2021/11/16 09:28:34;;;;;;;56.58;19.92;;;;;;;;;;5066370;28;20124;-54
2021/11/16 09:31:01;;;;;;;50.47;20.42;;;;;;;;;;5067081;28;20620;-54
2021/11/16 09:33:27;;;;;;;42.03;19.48;;;;;;;;;;5054237;28;20080;-54
2021/11/16 09:35:56;;;;;;;46.35;20.38;;;;;;;;;;5071877;28;20044;-54
2021/11/16 09:38:31;;;;;;;51.67;20.23;;;;;;;;;;5074018;28;20129;-55
2021/11/16 09:40:58;;;;;;;55.65;21.40;;;;;;;;;;5070629;28;20080;-54
2021/11/16 09:43:25;;;;;;;55.05;21.67;;;;;;;;;;5064970;28;20048;-54
2021/11/16 09:45:51;;;;;;;49.30;19.42;;;;;;;;;;5072312;28;20123;-54
2021/11/16 09:48:22;;;;;;;50.03;21.35;;;;;;;;;;5077972;28;20500;-54
2021/11/16 09:50:50;;;;;;;47.92;20.55;;;;;;;;;;5073032;28;20579;-54
2021/11/16 09:53:17;;;;;;;34.35;15.07;;;;;;;;;;5078065;28;20059;-54
2021/11/16 09:55:43;;;;;;;53.28;21.98;;;;;;;;;;5070179;28;20506;-53
2021/11/16 09:58:20;;;;;;;49.78;20.33;;;;;;;;;;5067504;28;20397;-55
2021/11/16 10:00:47;;;;;;;57.05;20.13;;;;;;;;;;5072273;28;20076;-54
2021/11/16 10:03:19;;;;;;;46.45;19.92;;;;;;;;;;5075970;28;20052;-54
2021/11/16 10:05:58;;;;;;;42.92;16.27;;;;;;;;;;5055310;28;20443;-55
2021/11/16 10:08:25;;;;;;;48.03;18.60;;;;;;;;;;5055076;28;20548;-55
2021/11/16 10:10:56;;;;;;;52.42;20.58;;;;;;;;;;5076452;28;20396;-54
2021/11/16 10:13:24;;;;;;;53.15;20.13;;;;;;;;;;5074702;28;20041;-54
2021/11/16 10:15:52;;;;;;;53.63;20.35;;;;;;;;;;5076927;28;20091;-55
2021/11/16 10:18:19;;;;;;;46.25;20.02;;;;;;;;;;5062612;28;20051;-54
2021/11/16 10:20:46;;;;;;;46.47;20.60;;;;;;;;;;5066964;28;20075;-54
2021/11/16 10:23:29;;;;;;;51.20;19.85;;;;;;;;;;5072761;28;20087;-55
2021/11/16 10:25:56;;;;;;;49.40;18.25;;;;;;;;;;5077346;28;20051;-54
2021/11/16 10:28:23;;;;;;;51.17;21.20;;;;;;;;;;5072701;28;20114;-54
2021/11/16 10:30:50;;;;;;;46.85;19.92;;;;;;;;;;5076272;28;20054;-54
2021/11/16 10:33:18;;;;;;;51.28;21.52;;;;;;;;;;5070829;28;20460;-54
2021/11/16 10:35:51;;;;;;;28.05;14.77;;;;;;;;;;5067430;28;20076;-54
2021/11/16 10:38:18;;;;;;;44.85;20.45;;;;;;;;;;5071672;28;20131;-54
2021/11/16 10:40:45;;;;;;;48.30;21.48;;;;;;;;;;5075521;28;20448;-54
2021/11/16 10:43:12;;;;;;;53.08;20.75;;;;;;;;;;5063849;28;20080;-55
2021/11/16 10:45:43;;;;;;;50.40;19.90;;;;;;;;;;5065751;28;20056;-55
2021/11/16 10:48:11;;;;;;;48.47;19.20;;;;;;;;;;5070125;28;20040;-54
2021/11/16 10:50:39;;;;;;;51.60;21.35;;;;;;;;;;5070726;28;20048;-54
2021/11/16 10:53:19;;;;;;;37.35;16.63;;;;;;;;;;5078135;28;20533;-55
2021/11/16 10:56:08;;;;;;;51.17;20.80;;;;;;;;;;5079426;28;20055;-54
2021/11/16 10:58:41;;;;;;;53.63;20.30;;;;;;;;;;5076637;28;20102;-55
2021/11/16 11:01:10;;;;;;;59.83;20.45;;;;;;;;;;5080645;28;20533;-54
2021/11/16 11:03:39;;;;;;;51.53;20.55;;;;;;;;;;5079137;28;20053;-54
2021/11/16 11:06:08;;;;;;;46.97;20.35;;;;;;;;;;5070749;28;20047;-55
2021/11/16 11:08:37;;;;;;;41.03;19.10;;;;;;;;;;5070172;28;20041;-55
2021/11/16 11:11:05;;;;;;;50.63;20.20;;;;;;;;;;5078344;28;20113;-55
2021/11/16 11:13:35;;;;;;;52.83;19.48;;;;;;;;;;5077834;28;20029;-54
2021/11/16 11:16:02;;;;;;;45.08;19.25;;;;;;;;;;5079080;28;20069;-55
2021/11/16 11:18:33;;;;;;;51.78;19.73;;;;;;;;;;5070725;28;20040;-54
2021/11/16 11:21:00;;;;;;;55.60;23.70;;;;;;;;;;5059862;28;20120;-54
2021/11/16 11:23:39;;;;;;;44.60;19.50;;;;;;;;;;5063385;28;20113;-54
2021/11/16 11:26:18;;;;;;;50.47;20.02;;;;;;;;;;5062519;28;20123;-54
2021/11/16 11:28:54;;;;;;;56.75;21.10;;;;;;;;;;5069668;28;20075;-54
2021/11/16 11:31:24;;;;;;;52.92;18.80;;;;;;;;;;5057662;28;20120;-54
2021/11/16 11:33:51;;;;;;;58.38;21.52;;;;;;;;;;5070045;28;20458;-55
2021/11/16 11:36:27;;;;;;;52.67;21.35;;;;;;;;;;5068683;28;20114;-54
2021/11/16 11:38:54;;;;;;;52.67;20.92;;;;;;;;;;5067482;28;20087;-54
2021/11/16 11:41:21;;;;;;;59.20;22.73;;;;;;;;;;5068482;28;20044;-54
2021/11/16 11:44:07;;;;;;;44.70;19.48;;;;;;;;;;5068879;28;20479;-54
2021/11/16 11:46:46;;;;;;;52.17;21.70;;;;;;;;;;5067075;28;20068;-54
2021/11/16 11:49:13;;;;;;;55.83;22.20;;;;;;;;;;5069631;28;20041;-54
2021/11/16 11:51:40;;;;;;;62.67;23.50;;;;;;;;;;5068188;28;20083;-54
2021/11/16 11:54:06;;;;;;;45.40;20.15;;;;;;;;;;5065443;28;20488;-54
2021/11/16 11:56:35;;;;;;;52.17;19.50;;;;;;;;;;5065494;28;20068;-54
2021/11/16 11:59:02;;;;;;;41.30;16.35;;;;;;;;;;5067820;28;20565;-54
2021/11/16 12:01:29;;;;;;;50.97;21.02;;;;;;;;;;5066976;28;20094;-54
2021/11/16 12:03:56;;;;;;;47.15;19.45;;;;;;;;;;5070189;28;20120;-55
2021/11/16 12:06:24;;;;;;;46.85;20.90;;;;;;;;;;5068874;28;20121;-54
2021/11/16 12:08:54;;;;;;;42.17;17.25;;;;;;;;;;5066292;28;20171;-54
2021/11/16 12:11:20;;;;;;;48.42;20.52;;;;;;;;;;5065987;28;20488;-54
2021/11/16 12:13:47;;;;;;;50.78;19.98;;;;;;;;;;5067232;28;20048;-54
2021/11/16 12:16:17;;;;;;;41.88;17.48;;;;;;;;;;5070201;28;20590;-54
2021/11/16 12:18:46;;;;;;;49.88;19.83;;;;;;;;;;5068564;28;20052;-54
2021/11/16 12:21:24;;;;;;;44.30;19.25;;;;;;;;;;5068541;28;20143;-54
2021/11/16 12:23:55;;;;;;;42.42;18.15;;;;;;;;;;5066566;28;20044;-55
2021/11/16 12:26:22;;;;;;;40.17;17.20;;;;;;;;;;5063340;28;20052;-54
2021/11/16 12:28:48;;;;;;;46.75;18.38;;;;;;;;;;5072844;28;20052;-55
2021/11/16 12:31:26;;;;;;;53.95;20.13;;;;;;;;;;5074743;28;20041;-54
2021/11/16 12:33:53;;;;;;;42.58;16.58;;;;;;;;;;5079373;28;20419;-54
2021/11/16 12:36:33;;;;;;;47.40;17.73;;;;;;;;;;5070783;28;20574;-54
2021/11/16 12:39:14;;;;;;;44.20;18.55;;;;;;;;;;5068366;28;20414;-54
2021/11/16 12:41:41;;;;;;;38.83;17.85;;;;;;;;;;5071433;28;20556;-54
2021/11/16 12:44:09;;;;;;;46.42;18.92;;;;;;;;;;5076016;28;20037;-55
2021/11/16 12:46:37;;;;;;;46.00;18.05;;;;;;;;;;5076045;28;20037;-55
2021/11/16 12:49:05;;;;;;;33.67;16.00;;;;;;;;;;5075735;28;20044;-54
2021/11/16 12:51:34;;;;;;;40.05;17.77;;;;;;;;;;5072714;28;20445;-54
2021/11/16 12:54:03;;;;;;;47.63;19.85;;;;;;;;;;5071260;28;20048;-54
2021/11/16 12:56:41;;;;;;;42.55;18.52;;;;;;;;;;5070170;28;20041;-54
2021/11/16 12:59:10;;;;;;;46.40;20.38;;;;;;;;;;5057214;28;20137;-54
2021/11/16 13:01:44;;;;;;;41.67;20.13;;;;;;;;;;5059227;28;20073;-54
2021/11/16 13:04:11;;;;;;;41.88;17.70;;;;;;;;;;5064895;28;20100;-54
2021/11/16 13:06:39;;;;;;;44.58;17.70;;;;;;;;;;5074507;28;20194;-54
2021/11/16 13:09:06;;;;;;;46.35;18.17;;;;;;;;;;5070473;28;20035;-54
2021/11/16 13:11:49;;;;;;;43.88;18.85;;;;;;;;;;5067779;28;20052;-54
2021/11/16 13:14:34;;;;;;;39.97;18.42;;;;;;;;;;5061142;28;20064;-54
2021/11/16 13:17:00;;;;;;;48.22;19.45;;;;;;;;;;5065245;28;20080;-55
2021/11/16 13:19:26;;;;;;;46.50;15.80;;;;;;;;;;5068784;28;20536;-54
2021/11/16 13:21:53;;;;;;;44.85;17.55;;;;;;;;;;5069026;28;20457;-54
2021/11/16 13:24:37;;;;;;;41.92;15.82;;;;;;;;;;5068535;28;20477;-54
2021/11/16 13:27:03;;;;;;;47.40;16.90;;;;;;;;;;5067298;28;20043;-54
2021/11/16 13:29:31;;;;;;;43.25;17.08;;;;;;;;;;5064494;28;20118;-54
2021/11/16 13:32:02;;;;;;;43.10;17.05;;;;;;;;;;5071860;28;20040;-54
2021/11/16 13:34:36;;;;;;;49.38;19.15;;;;;;;;;;5072416;28;20079;-54
2021/11/16 13:37:20;;;;;;;47.80;18.00;;;;;;;;;;5064516;28;20044;-55
2021/11/16 13:39:46;;;;;;;55.45;18.90;;;;;;;;;;5070986;28;20162;-55
2021/11/16 13:42:18;;;;;;;43.25;18.15;;;;;;;;;;5067326;28;20061;-54
2021/11/16 13:44:46;;;;;;;42.92;18.50;;;;;;;;;;5067121;28;20515;-54
2021/11/16 13:47:25;;;;;;;49.33;19.00;;;;;;;;;;5065292;28;20609;-54
2021/11/16 13:50:11;;;;;;;40.90;17.60;;;;;;;;;;5069042;28;20045;-54
2021/11/16 13:52:42;;;;;;;42.72;15.70;;;;;;;;;;5066890;28;20578;-54
2021/11/16 13:55:14;;;;;;;50.70;19.63;;;;;;;;;;5068880;28;20079;-54
2021/11/16 13:57:42;;;;;;;45.80;19.13;;;;;;;;;;5067177;28;20052;-54
2021/11/16 14:00:08;;;;;;;44.53;18.25;;;;;;;;;;5066600;28;20042;-54
2021/11/16 14:02:48;;;;;;;42.83;18.40;;;;;;;;;;5062073;28;20049;-54
2021/11/16 14:05:15;;;;;;;39.15;17.67;;;;;;;;;;5067205;28;20455;-54
2021/11/16 14:07:51;;;;;;;54.60;18.75;;;;;;;;;;5068299;28;20053;-54
2021/11/16 14:10:17;;;;;;;47.63;19.60;;;;;;;;;;5065157;28;20045;-53
2021/11/16 14:12:45;;;;;;;48.67;18.77;;;;;;;;;;5053816;28;20068;-54
2021/11/16 14:15:17;;;;;;;57.97;20.02;;;;;;;;;;5065072;28;20045;-54
2021/11/16 14:17:44;;;;;;;48.40;18.90;;;;;;;;;;5064213;28;20472;-54
2021/11/16 14:20:11;;;;;;;52.60;19.63;;;;;;;;;;5062277;28;20059;-55
2021/11/16 14:22:39;;;;;;;48.88;20.08;;;;;;;;;;5069788;28;20060;-54
2021/11/16 14:25:13;;;;;;;52.22;20.75;;;;;;;;;;5072265;28;20502;-54
2021/11/16 14:27:40;;;;;;;43.65;18.70;;;;;;;;;;5074637;28;20067;-54
2021/11/16 14:30:08;;;;;;;48.83;20.30;;;;;;;;;;5067951;28;20044;-54
2021/11/16 14:32:35;;;;;;;56.00;20.77;;;;;;;;;;5066581;28;20381;-53
2021/11/16 14:35:01;;;;;;;54.90;18.77;;;;;;;;;;5062856;28;20508;-54